sensor_id;sensor_type;location;lat;lon;timestamp;pressure;altitude;pressure_sealevel;temperature;humidity
74329;BME280;62749;51.982;5.916;2023-09-19T00:01:35;100458.50;;;15.99;85.59
74329;BME280;62749;51.982;5.916;2023-09-19T00:04:06;100471.38;;;16.05;85.24
74329;BME280;62749;51.982;5.916;2023-09-19T00:06:36;100464.34;;;16.04;84.79
74329;BME280;62749;51.982;5.916;2023-09-19T00:09:06;100479.16;;;16.08;83.88
74329;BME280;62749;51.982;5.916;2023-09-19T00:11:39;100484.81;;;16.03;84.51
74329;BME280;62749;51.982;5.916;2023-09-19T00:14:08;100486.84;;;16.00;86.38
74329;BME280;62749;51.982;5.916;2023-09-19T00:16:42;100483.22;;;16.01;85.88
74329;BME280;62749;51.982;5.916;2023-09-19T00:19:13;100493.47;;;16.07;86.56
74329;BME280;62749;51.982;5.916;2023-09-19T00:21:42;100498.13;;;16.16;86.36
74329;BME280;62749;51.982;5.916;2023-09-19T00:24:12;100500.03;;;16.14;87.78
74329;BME280;62749;51.982;5.916;2023-09-19T00:26:46;100496.31;;;16.17;88.24
74329;BME280;62749;51.982;5.916;2023-09-19T00:29:15;100510.59;;;16.29;86.92
74329;BME280;62749;51.982;5.916;2023-09-19T00:31:46;100510.81;;;16.25;88.19
74329;BME280;62749;51.982;5.916;2023-09-19T00:34:15;100509.00;;;16.26;88.83
74329;BME280;62749;51.982;5.916;2023-09-19T00:36:46;100503.97;;;16.21;90.03
74329;BME280;62749;51.982;5.916;2023-09-19T00:39:16;100506.22;;;16.28;89.59
74329;BME280;62749;51.982;5.916;2023-09-19T00:41:49;100507.94;;;16.29;90.08
74329;BME280;62749;51.982;5.916;2023-09-19T00:44:19;100518.88;;;16.37;89.98
74329;BME280;62749;51.982;5.916;2023-09-19T00:46:49;100504.38;;;16.28;90.02
74329;BME280;62749;51.982;5.916;2023-09-19T00:49:19;100514.34;;;16.26;90.18
74329;BME280;62749;51.982;5.916;2023-09-19T00:51:49;100512.50;;;16.26;89.40
74329;BME280;62749;51.982;5.916;2023-09-19T00:54:18;100522.34;;;16.26;89.53
74329;BME280;62749;51.982;5.916;2023-09-19T00:56:51;100529.56;;;16.24;89.61
74329;BME280;62749;51.982;5.916;2023-09-19T00:59:21;100532.56;;;16.19;90.61
74329;BME280;62749;51.982;5.916;2023-09-19T01:01:51;100524.66;;;16.18;89.57
74329;BME280;62749;51.982;5.916;2023-09-19T01:04:23;100531.38;;;16.23;89.38
74329;BME280;62749;51.982;5.916;2023-09-19T01:06:54;100521.47;;;16.13;89.85
74329;BME280;62749;51.982;5.916;2023-09-19T01:09:24;100527.66;;;16.13;91.63
74329;BME280;62749;51.982;5.916;2023-09-19T01:12:02;100528.06;;;16.20;91.97
74329;BME280;62749;51.982;5.916;2023-09-19T01:14:40;100533.19;;;16.23;90.99
74329;BME280;62749;51.982;5.916;2023-09-19T01:17:20;100523.38;;;16.23;91.34
74329;BME280;62749;51.982;5.916;2023-09-19T01:22:53;100528.72;;;16.10;90.40
74329;BME280;62749;51.982;5.916;2023-09-19T01:28:34;100533.72;;;16.02;90.65
74329;BME280;62749;51.982;5.916;2023-09-19T01:31:12;100537.34;;;16.01;90.60
74329;BME280;62749;51.982;5.916;2023-09-19T01:33:58;100542.56;;;16.03;90.34
74329;BME280;62749;51.982;5.916;2023-09-19T01:36:32;100544.28;;;16.04;90.21
74329;BME280;62749;51.982;5.916;2023-09-19T01:39:07;100541.94;;;15.99;90.09
74329;BME280;62749;51.982;5.916;2023-09-19T01:42:03;100551.75;;;16.12;88.73
74329;BME280;62749;51.982;5.916;2023-09-19T01:44:44;100548.97;;;16.13;87.81
74329;BME280;62749;51.982;5.916;2023-09-19T01:47:28;100559.31;;;16.18;87.45
74329;BME280;62749;51.982;5.916;2023-09-19T01:50:13;100557.72;;;16.15;87.77
74329;BME280;62749;51.982;5.916;2023-09-19T01:52:48;100555.81;;;16.17;87.06
74329;BME280;62749;51.982;5.916;2023-09-19T01:55:21;100559.22;;;16.19;86.47
74329;BME280;62749;51.982;5.916;2023-09-19T01:58:01;100556.09;;;16.25;86.81
74329;BME280;62749;51.982;5.916;2023-09-19T02:00:34;100566.47;;;16.17;85.30
74329;BME280;62749;51.982;5.916;2023-09-19T02:03:09;100550.22;;;16.20;85.39
74329;BME280;62749;51.982;5.916;2023-09-19T02:05:38;100559.63;;;16.13;84.38
74329;BME280;62749;51.982;5.916;2023-09-19T02:08:08;100558.13;;;16.09;84.40
74329;BME280;62749;51.982;5.916;2023-09-19T02:10:37;100565.47;;;16.05;84.91
74329;BME280;62749;51.982;5.916;2023-09-19T02:13:07;100558.56;;;16.03;84.62
74329;BME280;62749;51.982;5.916;2023-09-19T02:15:37;100567.72;;;15.99;84.51
74329;BME280;62749;51.982;5.916;2023-09-19T02:18:08;100577.63;;;15.97;84.50
74329;BME280;62749;51.982;5.916;2023-09-19T02:20:38;100568.09;;;15.79;84.12
74329;BME280;62749;51.982;5.916;2023-09-19T02:23:07;100572.88;;;15.74;85.08
74329;BME280;62749;51.982;5.916;2023-09-19T02:25:37;100565.72;;;15.75;83.72
74329;BME280;62749;51.982;5.916;2023-09-19T02:28:07;100572.13;;;15.72;83.44
74329;BME280;62749;51.982;5.916;2023-09-19T02:30:37;100569.22;;;15.75;83.02
74329;BME280;62749;51.982;5.916;2023-09-19T02:33:10;100567.84;;;15.70;83.05
74329;BME280;62749;51.982;5.916;2023-09-19T02:35:40;100560.59;;;15.72;82.08
74329;BME280;62749;51.982;5.916;2023-09-19T02:38:09;100560.16;;;15.65;81.93
74329;BME280;62749;51.982;5.916;2023-09-19T02:40:39;100568.56;;;15.59;82.79
74329;BME280;62749;51.982;5.916;2023-09-19T02:43:09;100573.78;;;15.60;82.45
74329;BME280;62749;51.982;5.916;2023-09-19T02:45:39;100575.31;;;15.64;82.17
74329;BME280;62749;51.982;5.916;2023-09-19T02:48:10;100579.03;;;15.62;81.48
74329;BME280;62749;51.982;5.916;2023-09-19T02:50:42;100580.81;;;15.48;81.51
74329;BME280;62749;51.982;5.916;2023-09-19T02:53:11;100575.47;;;15.48;81.45
74329;BME280;62749;51.982;5.916;2023-09-19T02:55:41;100592.09;;;15.52;80.89
74329;BME280;62749;51.982;5.916;2023-09-19T02:58:10;100587.16;;;15.46;80.40
74329;BME280;62749;51.982;5.916;2023-09-19T03:00:41;100579.38;;;15.43;81.01
74329;BME280;62749;51.982;5.916;2023-09-19T03:03:16;100582.56;;;15.35;81.34
74329;BME280;62749;51.982;5.916;2023-09-19T03:05:45;100584.34;;;15.34;80.89
74329;BME280;62749;51.982;5.916;2023-09-19T03:08:17;100595.63;;;15.38;81.25
74329;BME280;62749;51.982;5.916;2023-09-19T03:10:48;100597.66;;;15.34;80.37
74329;BME280;62749;51.982;5.916;2023-09-19T03:13:17;100591.13;;;15.26;81.73
74329;BME280;62749;51.982;5.916;2023-09-19T03:15:46;100591.03;;;15.27;81.59
74329;BME280;62749;51.982;5.916;2023-09-19T03:18:19;100589.22;;;15.28;80.64
74329;BME280;62749;51.982;5.916;2023-09-19T03:20:52;100591.72;;;15.16;81.80
74329;BME280;62749;51.982;5.916;2023-09-19T03:23:22;100588.41;;;15.13;80.72
74329;BME280;62749;51.982;5.916;2023-09-19T03:25:52;100592.03;;;15.12;80.82
74329;BME280;62749;51.982;5.916;2023-09-19T03:28:22;100585.09;;;15.09;80.98
74329;BME280;62749;51.982;5.916;2023-09-19T03:30:58;100596.78;;;15.07;80.13
74329;BME280;62749;51.982;5.916;2023-09-19T03:33:32;100591.22;;;14.97;79.31
74329;BME280;62749;51.982;5.916;2023-09-19T03:36:02;100584.44;;;14.91;81.24
74329;BME280;62749;51.982;5.916;2023-09-19T03:38:33;100572.47;;;14.98;80.09
74329;BME280;62749;51.982;5.916;2023-09-19T03:41:02;100572.19;;;15.03;79.86
74329;BME280;62749;51.982;5.916;2023-09-19T03:43:32;100586.09;;;14.94;79.15
74329;BME280;62749;51.982;5.916;2023-09-19T03:46:02;100590.34;;;14.96;79.34
74329;BME280;62749;51.982;5.916;2023-09-19T03:48:36;100592.34;;;14.93;78.11
74329;BME280;62749;51.982;5.916;2023-09-19T03:51:05;100591.00;;;14.85;78.36
74329;BME280;62749;51.982;5.916;2023-09-19T03:53:35;100580.88;;;14.78;78.98
74329;BME280;62749;51.982;5.916;2023-09-19T03:56:04;100586.84;;;14.81;78.70
74329;BME280;62749;51.982;5.916;2023-09-19T03:58:34;100589.22;;;14.86;80.36
74329;BME280;62749;51.982;5.916;2023-09-19T04:01:06;100582.78;;;14.90;77.70
74329;BME280;62749;51.982;5.916;2023-09-19T04:03:38;100583.03;;;14.85;77.37
74329;BME280;62749;51.982;5.916;2023-09-19T04:06:15;100581.34;;;14.84;77.65
74329;BME280;62749;51.982;5.916;2023-09-19T04:08:45;100580.47;;;14.84;77.29
74329;BME280;62749;51.982;5.916;2023-09-19T04:11:15;100585.16;;;14.80;78.37
74329;BME280;62749;51.982;5.916;2023-09-19T04:13:44;100586.56;;;14.86;77.09
74329;BME280;62749;51.982;5.916;2023-09-19T04:16:13;100585.22;;;14.93;77.08
74329;BME280;62749;51.982;5.916;2023-09-19T04:18:45;100596.31;;;14.85;75.42
74329;BME280;62749;51.982;5.916;2023-09-19T04:21:15;100601.28;;;14.77;75.36
74329;BME280;62749;51.982;5.916;2023-09-19T04:23:46;100601.41;;;14.76;76.28
74329;BME280;62749;51.982;5.916;2023-09-19T04:26:15;100606.78;;;14.74;75.73
74329;BME280;62749;51.982;5.916;2023-09-19T04:28:45;100616.16;;;14.65;76.34
74329;BME280;62749;51.982;5.916;2023-09-19T04:31:14;100633.66;;;14.69;76.17
74329;BME280;62749;51.982;5.916;2023-09-19T04:33:47;100631.78;;;14.71;75.74
74329;BME280;62749;51.982;5.916;2023-09-19T04:36:16;100644.22;;;14.71;76.42
74329;BME280;62749;51.982;5.916;2023-09-19T04:38:48;100644.97;;;14.73;76.24
74329;BME280;62749;51.982;5.916;2023-09-19T04:41:18;100650.03;;;14.78;75.48
74329;BME280;62749;51.982;5.916;2023-09-19T04:43:48;100644.78;;;14.76;75.89
74329;BME280;62749;51.982;5.916;2023-09-19T04:46:18;100640.22;;;14.78;76.85
74329;BME280;62749;51.982;5.916;2023-09-19T04:48:50;100648.69;;;14.70;75.29
74329;BME280;62749;51.982;5.916;2023-09-19T04:51:20;100649.03;;;14.64;75.74
74329;BME280;62749;51.982;5.916;2023-09-19T04:53:49;100661.47;;;14.64;75.52
74329;BME280;62749;51.982;5.916;2023-09-19T04:56:19;100649.22;;;14.61;76.19
74329;BME280;62749;51.982;5.916;2023-09-19T04:58:49;100653.47;;;14.64;75.94
74329;BME280;62749;51.982;5.916;2023-09-19T05:01:18;100661.75;;;14.59;76.72
74329;BME280;62749;51.982;5.916;2023-09-19T05:03:51;100664.88;;;14.66;77.11
74329;BME280;62749;51.982;5.916;2023-09-19T05:06:21;100663.94;;;14.67;76.66
74329;BME280;62749;51.982;5.916;2023-09-19T05:08:52;100665.72;;;14.66;77.85
74329;BME280;62749;51.982;5.916;2023-09-19T05:11:22;100665.22;;;14.76;76.62
74329;BME280;62749;51.982;5.916;2023-09-19T05:13:51;100655.22;;;14.79;76.96
74329;BME280;62749;51.982;5.916;2023-09-19T05:16:21;100646.69;;;14.74;76.24
74329;BME280;62749;51.982;5.916;2023-09-19T05:18:53;100650.97;;;14.77;76.62
74329;BME280;62749;51.982;5.916;2023-09-19T05:21:22;100645.84;;;14.73;76.15
74329;BME280;62749;51.982;5.916;2023-09-19T05:23:55;100660.91;;;14.58;77.71
74329;BME280;62749;51.982;5.916;2023-09-19T05:26:27;100663.44;;;14.60;77.00
74329;BME280;62749;51.982;5.916;2023-09-19T05:28:57;100659.41;;;14.69;77.89
74329;BME280;62749;51.982;5.916;2023-09-19T05:31:27;100662.25;;;14.80;77.15
74329;BME280;62749;51.982;5.916;2023-09-19T05:33:59;100656.84;;;14.82;77.22
74329;BME280;62749;51.982;5.916;2023-09-19T05:36:29;100661.97;;;14.85;77.44
74329;BME280;62749;51.982;5.916;2023-09-19T05:39:00;100649.72;;;14.82;77.65
74329;BME280;62749;51.982;5.916;2023-09-19T05:41:29;100656.75;;;14.83;77.19
74329;BME280;62749;51.982;5.916;2023-09-19T05:43:59;100667.28;;;14.85;77.23
74329;BME280;62749;51.982;5.916;2023-09-19T05:46:28;100671.09;;;14.81;77.63
74329;BME280;62749;51.982;5.916;2023-09-19T05:49:00;100666.53;;;14.83;79.81
74329;BME280;62749;51.982;5.916;2023-09-19T05:51:30;100663.69;;;14.86;79.60
74329;BME280;62749;51.982;5.916;2023-09-19T05:53:59;100664.34;;;14.90;77.96
74329;BME280;62749;51.982;5.916;2023-09-19T05:56:28;100665.94;;;14.92;78.93
74329;BME280;62749;51.982;5.916;2023-09-19T05:58:58;100661.97;;;14.99;77.59
74329;BME280;62749;51.982;5.916;2023-09-19T06:01:27;100657.03;;;14.93;77.88
74329;BME280;62749;51.982;5.916;2023-09-19T06:04:13;100661.22;;;14.83;78.21
74329;BME280;62749;51.982;5.916;2023-09-19T06:06:42;100668.06;;;14.72;78.97
74329;BME280;62749;51.982;5.916;2023-09-19T06:09:11;100671.28;;;14.78;78.79
74329;BME280;62749;51.982;5.916;2023-09-19T06:11:41;100670.72;;;14.87;79.17
74329;BME280;62749;51.982;5.916;2023-09-19T06:14:10;100678.41;;;14.92;78.99
74329;BME280;62749;51.982;5.916;2023-09-19T06:16:44;100679.25;;;14.92;78.84
74329;BME280;62749;51.982;5.916;2023-09-19T06:19:16;100676.31;;;14.97;79.27
74329;BME280;62749;51.982;5.916;2023-09-19T06:21:49;100678.00;;;14.98;79.27
74329;BME280;62749;51.982;5.916;2023-09-19T06:24:18;100676.50;;;14.94;79.64
74329;BME280;62749;51.982;5.916;2023-09-19T06:26:48;100679.16;;;15.08;79.55
74329;BME280;62749;51.982;5.916;2023-09-19T06:29:18;100674.88;;;15.06;80.35
74329;BME280;62749;51.982;5.916;2023-09-19T06:31:49;100676.50;;;15.08;80.08
74329;BME280;62749;51.982;5.916;2023-09-19T06:34:21;100687.03;;;15.10;79.85
74329;BME280;62749;51.982;5.916;2023-09-19T06:36:52;100697.88;;;15.07;80.13
74329;BME280;62749;51.982;5.916;2023-09-19T06:39:22;100698.09;;;15.03;80.35
74329;BME280;62749;51.982;5.916;2023-09-19T06:41:52;100702.72;;;15.14;80.24
74329;BME280;62749;51.982;5.916;2023-09-19T06:44:22;100700.16;;;15.13;80.52
74329;BME280;62749;51.982;5.916;2023-09-19T06:46:51;100696.56;;;15.14;80.41
74329;BME280;62749;51.982;5.916;2023-09-19T06:49:23;100693.41;;;15.22;80.43
74329;BME280;62749;51.982;5.916;2023-09-19T06:51:54;100688.56;;;15.28;80.76
74329;BME280;62749;51.982;5.916;2023-09-19T06:54:41;100697.47;;;15.27;80.41
74329;BME280;62749;51.982;5.916;2023-09-19T06:57:11;100702.34;;;15.21;81.01
74329;BME280;62749;51.982;5.916;2023-09-19T06:59:40;100692.47;;;15.23;81.31
74329;BME280;62749;51.982;5.916;2023-09-19T07:02:11;100691.22;;;15.28;81.16
74329;BME280;62749;51.982;5.916;2023-09-19T07:04:43;100686.44;;;15.33;81.20
74329;BME280;62749;51.982;5.916;2023-09-19T07:07:12;100686.44;;;15.33;81.85
74329;BME280;62749;51.982;5.916;2023-09-19T07:09:42;100693.63;;;15.46;81.49
74329;BME280;62749;51.982;5.916;2023-09-19T07:12:15;100693.25;;;15.52;81.24
74329;BME280;62749;51.982;5.916;2023-09-19T07:14:44;100699.34;;;15.54;81.50
74329;BME280;62749;51.982;5.916;2023-09-19T07:17:13;100698.56;;;15.52;81.22
74329;BME280;62749;51.982;5.916;2023-09-19T07:19:46;100700.47;;;15.50;81.06
74329;BME280;62749;51.982;5.916;2023-09-19T07:22:16;100698.00;;;15.47;81.54
74329;BME280;62749;51.982;5.916;2023-09-19T07:24:46;100708.16;;;15.55;81.22
74329;BME280;62749;51.982;5.916;2023-09-19T07:27:15;100703.72;;;15.55;80.51
74329;BME280;62749;51.982;5.916;2023-09-19T07:29:45;100707.56;;;15.64;80.95
74329;BME280;62749;51.982;5.916;2023-09-19T07:32:14;100698.88;;;15.75;81.57
74329;BME280;62749;51.982;5.916;2023-09-19T07:34:46;100699.72;;;15.75;81.32
74329;BME280;62749;51.982;5.916;2023-09-19T07:37:15;100710.66;;;15.85;80.67
74329;BME280;62749;51.982;5.916;2023-09-19T07:39:45;100713.97;;;15.89;80.00
74329;BME280;62749;51.982;5.916;2023-09-19T07:42:14;100706.75;;;15.91;81.49
74329;BME280;62749;51.982;5.916;2023-09-19T07:44:44;100704.44;;;15.99;79.63
74329;BME280;62749;51.982;5.916;2023-09-19T07:47:17;100710.81;;;15.97;79.87
74329;BME280;62749;51.982;5.916;2023-09-19T07:49:49;100709.78;;;15.99;80.10
74329;BME280;62749;51.982;5.916;2023-09-19T07:52:19;100714.38;;;16.10;79.11
74329;BME280;62749;51.982;5.916;2023-09-19T07:54:49;100718.59;;;16.00;78.85
74329;BME280;62749;51.982;5.916;2023-09-19T07:57:18;100731.09;;;15.99;79.02
74329;BME280;62749;51.982;5.916;2023-09-19T07:59:48;100719.69;;;16.10;80.53
74329;BME280;62749;51.982;5.916;2023-09-19T08:02:17;100722.72;;;16.18;80.18
74329;BME280;62749;51.982;5.916;2023-09-19T08:04:50;100734.69;;;16.25;78.38
74329;BME280;62749;51.982;5.916;2023-09-19T08:07:19;100716.53;;;16.18;79.40
74329;BME280;62749;51.982;5.916;2023-09-19T08:09:49;100718.69;;;16.25;78.60
74329;BME280;62749;51.982;5.916;2023-09-19T08:12:19;100717.72;;;16.26;77.93
74329;BME280;62749;51.982;5.916;2023-09-19T08:14:50;100724.66;;;16.29;77.73
74329;BME280;62749;51.982;5.916;2023-09-19T08:17:21;100722.03;;;16.42;78.60
74329;BME280;62749;51.982;5.916;2023-09-19T08:19:54;100723.00;;;16.41;78.68
74329;BME280;62749;51.982;5.916;2023-09-19T08:22:23;100724.19;;;16.50;78.38
74329;BME280;62749;51.982;5.916;2023-09-19T08:24:53;100724.19;;;16.50;78.79
74329;BME280;62749;51.982;5.916;2023-09-19T08:27:23;100715.31;;;16.49;77.61
74329;BME280;62749;51.982;5.916;2023-09-19T08:29:53;100728.44;;;16.52;78.11
74329;BME280;62749;51.982;5.916;2023-09-19T08:32:22;100726.31;;;16.58;77.14
74329;BME280;62749;51.982;5.916;2023-09-19T08:34:56;100730.91;;;16.68;78.27
74329;BME280;62749;51.982;5.916;2023-09-19T08:37:25;100732.28;;;16.74;77.83
74329;BME280;62749;51.982;5.916;2023-09-19T08:39:55;100733.91;;;16.90;78.72
74329;BME280;62749;51.982;5.916;2023-09-19T08:42:24;100717.50;;;16.96;76.75
74329;BME280;62749;51.982;5.916;2023-09-19T08:44:55;100715.44;;;16.86;76.99
74329;BME280;62749;51.982;5.916;2023-09-19T08:47:34;100713.31;;;16.92;76.89
74329;BME280;62749;51.982;5.916;2023-09-19T08:50:19;100718.47;;;16.95;77.72
74329;BME280;62749;51.982;5.916;2023-09-19T08:52:52;100714.94;;;17.07;77.36
74329;BME280;62749;51.982;5.916;2023-09-19T08:55:27;100733.16;;;17.13;78.32
74329;BME280;62749;51.982;5.916;2023-09-19T08:58:01;100726.66;;;17.17;77.39
74329;BME280;62749;51.982;5.916;2023-09-19T09:00:34;100728.25;;;17.20;75.83
74329;BME280;62749;51.982;5.916;2023-09-19T09:03:12;100703.19;;;17.10;76.91
74329;BME280;62749;51.982;5.916;2023-09-19T09:05:46;100719.56;;;17.42;75.91
74329;BME280;62749;51.982;5.916;2023-09-19T09:08:18;100725.94;;;17.53;75.56
74329;BME280;62749;51.982;5.916;2023-09-19T09:10:50;100728.09;;;17.47;75.32
74329;BME280;62749;51.982;5.916;2023-09-19T09:13:20;100724.97;;;17.54;74.75
74329;BME280;62749;51.982;5.916;2023-09-19T09:15:52;100717.50;;;17.59;73.65
74329;BME280;62749;51.982;5.916;2023-09-19T09:18:21;100713.53;;;17.52;74.61
74329;BME280;62749;51.982;5.916;2023-09-19T09:20:54;100703.19;;;17.60;73.31
74329;BME280;62749;51.982;5.916;2023-09-19T09:23:23;100711.25;;;17.71;73.58
74329;BME280;62749;51.982;5.916;2023-09-19T09:25:56;100711.94;;;17.62;71.35
74329;BME280;62749;51.982;5.916;2023-09-19T09:28:30;100716.88;;;17.79;72.47
74329;BME280;62749;51.982;5.916;2023-09-19T09:31:01;100704.59;;;18.01;71.18
74329;BME280;62749;51.982;5.916;2023-09-19T09:33:35;100712.78;;;18.11;70.15
74329;BME280;62749;51.982;5.916;2023-09-19T09:36:07;100716.34;;;18.12;70.04
74329;BME280;62749;51.982;5.916;2023-09-19T09:38:44;100716.94;;;18.15;70.37
74329;BME280;62749;51.982;5.916;2023-09-19T09:41:16;100705.50;;;18.37;67.79
74329;BME280;62749;51.982;5.916;2023-09-19T09:43:54;100700.13;;;18.26;68.55
74329;BME280;62749;51.982;5.916;2023-09-19T09:46:25;100714.31;;;18.27;68.94
74329;BME280;62749;51.982;5.916;2023-09-19T09:49:27;100706.13;;;18.17;67.48
74329;BME280;62749;51.982;5.916;2023-09-19T09:52:04;100701.31;;;18.22;66.68
74329;BME280;62749;51.982;5.916;2023-09-19T09:54:58;100709.00;;;18.38;68.64
74329;BME280;62749;51.982;5.916;2023-09-19T09:57:31;100703.59;;;18.51;67.15
74329;BME280;62749;51.982;5.916;2023-09-19T10:00:02;100709.63;;;18.53;67.45
74329;BME280;62749;51.982;5.916;2023-09-19T10:02:43;100706.50;;;18.59;65.81
74329;BME280;62749;51.982;5.916;2023-09-19T10:05:14;100708.56;;;18.55;66.14
74329;BME280;62749;51.982;5.916;2023-09-19T10:07:51;100708.34;;;18.70;66.56
74329;BME280;62749;51.982;5.916;2023-09-19T10:10:30;100701.78;;;18.85;67.02
74329;BME280;62749;51.982;5.916;2023-09-19T10:13:11;100692.94;;;19.08;66.64
74329;BME280;62749;51.982;5.916;2023-09-19T10:15:43;100691.75;;;19.00;64.75
74329;BME280;62749;51.982;5.916;2023-09-19T10:18:15;100689.13;;;18.88;64.62
74329;BME280;62749;51.982;5.916;2023-09-19T10:20:46;100692.72;;;18.99;65.38
74329;BME280;62749;51.982;5.916;2023-09-19T10:23:20;100688.06;;;18.90;64.07
74329;BME280;62749;51.982;5.916;2023-09-19T10:25:51;100691.34;;;19.16;65.46
74329;BME280;62749;51.982;5.916;2023-09-19T10:28:21;100684.91;;;19.19;66.60
74329;BME280;62749;51.982;5.916;2023-09-19T10:30:52;100683.44;;;19.38;64.52
74329;BME280;62749;51.982;5.916;2023-09-19T10:33:24;100688.53;;;19.41;64.64
74329;BME280;62749;51.982;5.916;2023-09-19T10:35:59;100699.34;;;19.39;64.94
74329;BME280;62749;51.982;5.916;2023-09-19T10:38:33;100690.13;;;19.32;64.21
74329;BME280;62749;51.982;5.916;2023-09-19T10:41:05;100690.25;;;19.19;65.08
74329;BME280;62749;51.982;5.916;2023-09-19T10:43:39;100677.34;;;19.24;64.09
74329;BME280;62749;51.982;5.916;2023-09-19T10:46:11;100693.53;;;19.34;64.53
74329;BME280;62749;51.982;5.916;2023-09-19T10:48:41;100700.50;;;19.25;64.44
74329;BME280;62749;51.982;5.916;2023-09-19T10:51:18;100686.50;;;19.22;64.52
74329;BME280;62749;51.982;5.916;2023-09-19T10:53:56;100691.88;;;19.10;65.15
74329;BME280;62749;51.982;5.916;2023-09-19T10:56:34;100704.13;;;18.90;65.17
74329;BME280;62749;51.982;5.916;2023-09-19T10:59:09;100690.47;;;18.82;66.38
74329;BME280;62749;51.982;5.916;2023-09-19T11:01:46;100693.16;;;18.93;65.74
74329;BME280;62749;51.982;5.916;2023-09-19T11:04:26;100698.03;;;18.88;65.63
74329;BME280;62749;51.982;5.916;2023-09-19T11:07:00;100664.69;;;18.81;66.66
74329;BME280;62749;51.982;5.916;2023-09-19T11:09:48;100666.88;;;18.87;66.53
74329;BME280;62749;51.982;5.916;2023-09-19T11:12:49;100659.25;;;18.94;66.58
74329;BME280;62749;51.982;5.916;2023-09-19T11:21:41;100645.97;;;19.26;65.84
74329;BME280;62749;51.982;5.916;2023-09-19T11:24:29;100642.41;;;19.26;64.38
74329;BME280;62749;51.982;5.916;2023-09-19T11:27:15;100639.91;;;19.13;64.29
74329;BME280;62749;51.982;5.916;2023-09-19T11:29:46;100638.66;;;19.17;65.66
74329;BME280;62749;51.982;5.916;2023-09-19T11:32:16;100639.69;;;19.37;63.60
74329;BME280;62749;51.982;5.916;2023-09-19T11:34:48;100635.69;;;19.31;64.61
74329;BME280;62749;51.982;5.916;2023-09-19T11:40:26;100649.44;;;19.38;64.64
74329;BME280;62749;51.982;5.916;2023-09-19T11:42:59;100644.91;;;19.50;63.15
74329;BME280;62749;51.982;5.916;2023-09-19T11:46:04;100634.16;;;19.61;62.83
74329;BME280;62749;51.982;5.916;2023-09-19T11:48:35;100617.06;;;19.74;61.59
74329;BME280;62749;51.982;5.916;2023-09-19T11:51:16;100621.66;;;19.83;61.65
74329;BME280;62749;51.982;5.916;2023-09-19T11:53:51;100636.75;;;19.84;61.26
74329;BME280;62749;51.982;5.916;2023-09-19T11:56:22;100634.84;;;19.86;60.19
74329;BME280;62749;51.982;5.916;2023-09-19T11:58:56;100624.44;;;19.93;60.31
74329;BME280;62749;51.982;5.916;2023-09-19T12:01:32;100633.78;;;19.99;62.67
74329;BME280;62749;51.982;5.916;2023-09-19T12:04:02;100622.28;;;20.08;61.13
74329;BME280;62749;51.982;5.916;2023-09-19T12:06:33;100635.44;;;20.32;60.98
74329;BME280;62749;51.982;5.916;2023-09-19T12:09:12;100633.16;;;20.28;59.14
74329;BME280;62749;51.982;5.916;2023-09-19T12:11:43;100628.44;;;20.20;59.84
74329;BME280;62749;51.982;5.916;2023-09-19T12:14:25;100627.47;;;20.21;59.52
74329;BME280;62749;51.982;5.916;2023-09-19T12:16:55;100623.22;;;20.18;58.69
74329;BME280;62749;51.982;5.916;2023-09-19T12:19:26;100629.81;;;20.14;58.80
74329;BME280;62749;51.982;5.916;2023-09-19T12:22:00;100612.03;;;20.13;58.62
74329;BME280;62749;51.982;5.916;2023-09-19T12:24:32;100615.03;;;20.20;60.43
74329;BME280;62749;51.982;5.916;2023-09-19T12:27:06;100608.44;;;20.55;59.24
74329;BME280;62749;51.982;5.916;2023-09-19T12:29:46;100616.09;;;20.91;58.78
74329;BME280;62749;51.982;5.916;2023-09-19T12:32:16;100626.38;;;20.76;57.43
74329;BME280;62749;51.982;5.916;2023-09-19T12:34:51;100628.81;;;20.58;57.53
74329;BME280;62749;51.982;5.916;2023-09-19T12:37:21;100625.16;;;20.59;58.06
74329;BME280;62749;51.982;5.916;2023-09-19T12:40:04;100621.38;;;20.40;58.26
74329;BME280;62749;51.982;5.916;2023-09-19T12:42:44;100622.81;;;20.23;58.25
74329;BME280;62749;51.982;5.916;2023-09-19T12:45:17;100606.09;;;20.10;60.72
74329;BME280;62749;51.982;5.916;2023-09-19T12:48:17;100617.59;;;20.00;59.33
74329;BME280;62749;51.982;5.916;2023-09-19T12:51:00;100617.59;;;20.00;59.03
74329;BME280;62749;51.982;5.916;2023-09-19T12:53:32;100611.75;;;19.95;60.46
74329;BME280;62749;51.982;5.916;2023-09-19T12:56:06;100604.63;;;20.05;59.86
74329;BME280;62749;51.982;5.916;2023-09-19T12:58:48;100620.13;;;20.02;59.86
74329;BME280;62749;51.982;5.916;2023-09-19T13:01:22;100619.47;;;19.88;59.40
74329;BME280;62749;51.982;5.916;2023-09-19T13:04:15;100621.91;;;19.91;60.11
74329;BME280;62749;51.982;5.916;2023-09-19T13:06:52;100616.19;;;19.85;60.62
74329;BME280;62749;51.982;5.916;2023-09-19T13:09:27;100627.94;;;19.72;61.54
74329;BME280;62749;51.982;5.916;2023-09-19T13:12:00;100609.50;;;19.79;60.56
74329;BME280;62749;51.982;5.916;2023-09-19T13:14:32;100610.22;;;19.81;60.93
74329;BME280;62749;51.982;5.916;2023-09-19T13:17:07;100612.75;;;19.94;61.28
74329;BME280;62749;51.982;5.916;2023-09-19T13:19:44;100598.94;;;19.99;61.52
74329;BME280;62749;51.982;5.916;2023-09-19T13:22:36;100617.72;;;19.99;59.67
74329;BME280;62749;51.982;5.916;2023-09-19T13:25:05;100604.44;;;19.97;59.84
74329;BME280;62749;51.982;5.916;2023-09-19T13:27:41;100607.41;;;19.83;62.03
74329;BME280;62749;51.982;5.916;2023-09-19T13:30:12;100623.31;;;19.96;61.36
74329;BME280;62749;51.982;5.916;2023-09-19T13:32:44;100608.44;;;19.70;61.44
74329;BME280;62749;51.982;5.916;2023-09-19T13:35:14;100617.41;;;19.81;61.58